Time;durP1;ratioP1;P1;durP2;ratioP2;P2;SDS_P1;SDS_P2;PMS_P1;PMS_P2;Temp;Humidity;BMP_temperature;BMP_pressure;BME280_temperature;BME280_humidity;BME280_pressure;Samples;Min_cycle;Max_cycle;Signal;HPM_P1;HPM_P2
2022/08/15 00:00:23;;;;;;;0.40;0.40;;;20.10;70.00;;;20.48;56.17;94125.66;5014898;28;20185;-78
2022/08/15 00:02:53;;;;;;;0.40;0.40;;;20.10;70.20;;;20.47;55.75;94121.41;5029467;28;20216;-78
2022/08/15 00:05:33;;;;;;;0.40;0.40;;;20.10;70.20;;;20.45;55.73;94114.75;5017029;28;20196;-78
2022/08/15 00:08:06;;;;;;;0.30;0.30;;;20.10;70.50;;;20.48;56.04;94123.00;5036830;28;20273;-78
2022/08/15 00:11:05;;;;;;;0.40;0.40;;;20.00;70.10;;;20.43;55.69;94119.56;5031783;28;20591;-78
2022/08/15 00:13:56;;;;;;;0.45;0.45;;;20.00;70.20;;;20.31;56.01;94111.88;5017463;28;20302;-78
2022/08/15 00:16:36;;;;;;;0.40;0.40;;;20.00;70.90;;;20.37;56.48;94118.00;5015833;28;20239;-78
2022/08/15 00:19:12;;;;;;;0.50;0.50;;;20.00;71.00;;;20.31;56.72;94112.69;5048460;28;20230;-78
2022/08/15 00:21:46;;;;;;;0.40;0.40;;;20.00;71.20;;;20.33;57.16;94115.06;5016409;28;20648;-78
2022/08/15 00:24:22;;;;;;;0.50;0.50;;;20.00;71.00;;;20.29;57.01;94114.81;5016285;28;20206;-78
2022/08/15 00:26:58;;;;;;;0.40;0.40;;;19.90;70.70;;;20.30;57.12;94112.97;5012364;28;20216;-78
2022/08/15 00:29:28;;;;;;;0.57;0.57;;;19.90;70.90;;;20.31;56.54;94109.22;5028292;28;20224;-78
2022/08/15 00:32:11;;;;;;;0.50;0.50;;;20.00;71.20;;;20.28;56.91;94107.91;5042545;28;20220;-77
2022/08/15 00:34:59;;;;;;;0.40;0.40;;;19.90;71.30;;;20.29;57.02;94108.72;5033761;28;20571;-78
2022/08/15 00:37:26;;;;;;;0.40;0.40;;;19.90;71.10;;;20.29;56.77;94104.16;5030549;28;20219;-78
2022/08/15 00:39:55;;;;;;;0.50;0.50;;;19.90;71.20;;;20.29;56.71;94109.50;5016681;28;20214;-79
2022/08/15 00:42:25;;;;;;;0.40;0.40;;;19.90;71.30;;;20.29;57.52;94114.03;5032533;28;20212;-78
2022/08/15 00:44:57;;;;;;;0.40;0.40;;;19.90;72.50;;;20.28;56.82;94115.09;4998437;28;20298;-78
2022/08/15 00:47:40;;;;;;;0.50;0.50;;;19.90;71.50;;;20.26;57.34;94110.06;5035204;28;20235;-78
2022/08/15 00:50:13;;;;;;;0.40;0.40;;;19.80;71.30;;;20.25;57.06;94108.47;5028763;28;20212;-78
2022/08/15 00:53:06;;;;;;;0.40;0.40;;;19.80;71.30;;;20.22;57.43;94110.88;5028824;28;20200;-78
2022/08/15 00:55:40;;;;;;;0.40;0.40;;;19.90;71.80;;;20.20;57.54;94107.66;5017448;28;20204;-78
2022/08/15 00:58:09;;;;;;;0.40;0.40;;;19.80;71.80;;;20.17;57.31;94098.38;5032083;28;20210;-77
2022/08/15 01:00:57;;;;;;;0.40;0.40;;;19.80;71.70;;;20.13;57.22;94103.44;5018405;28;20216;-78
2022/08/15 01:03:33;;;;;;;0.40;0.40;;;19.80;71.40;;;20.10;57.22;94093.34;5015453;28;20208;-78
2022/08/15 01:06:22;;;;;;;0.40;0.40;;;19.70;71.80;;;20.08;57.27;94100.78;5041708;28;20222;-78
2022/08/15 01:08:58;;;;;;;0.40;0.40;;;19.70;71.70;;;20.06;57.49;94107.47;5021039;28;20245;-78
2022/08/15 01:11:45;;;;;;;0.40;0.40;;;19.70;71.80;;;20.03;58.05;94116.78;5035352;28;20708;-78
2022/08/15 01:14:14;;;;;;;0.40;0.40;;;19.60;72.80;;;19.99;58.01;94105.88;5019267;28;20632;-78
2022/08/15 01:17:03;;;;;;;0.40;0.40;;;19.60;72.10;;;20.00;58.08;94109.34;5057361;28;20311;-77
2022/08/15 01:19:40;;;;;;;0.47;0.47;;;19.60;72.30;;;19.97;57.59;94099.25;5015453;28;20278;-78
2022/08/15 01:22:17;;;;;;;0.40;0.40;;;19.60;72.50;;;19.96;58.00;94095.78;5048177;28;20641;-78
2022/08/15 01:25:15;;;;;;;0.43;0.43;;;19.60;72.20;;;19.93;58.14;94098.16;5032236;28;20281;-78
2022/08/15 01:28:16;;;;;;;0.40;0.40;;;19.50;72.80;;;19.89;58.16;94099.78;4998516;28;20360;-78
2022/08/15 01:31:16;;;;;;;0.40;0.40;;;19.50;72.80;;;19.83;57.80;94090.97;5020736;28;20207;-78
2022/08/15 01:33:53;;;;;;;0.40;0.40;;;19.50;73.00;;;19.83;57.88;94099.81;4985520;28;20290;-78
2022/08/15 01:36:25;;;;;;;0.40;0.40;;;19.50;72.70;;;19.82;58.25;94100.03;5018458;28;20696;-78
2022/08/15 01:39:57;;;;;;;0.40;0.40;;;19.40;72.20;;;19.77;57.96;94100.84;5019120;28;20205;-78
2022/08/15 01:42:41;;;;;;;0.30;0.30;;;19.40;73.10;;;19.74;58.01;94100.56;4995776;28;20311;-78
2022/08/15 01:45:21;;;;;;;0.45;0.45;;;19.40;72.80;;;19.72;57.87;94094.75;5040234;28;20200;-78
2022/08/15 01:48:00;;;;;;;0.50;0.50;;;19.40;73.00;;;19.66;58.17;94100.09;5047734;28;20219;-77
2022/08/15 01:50:42;;;;;;;0.40;0.40;;;19.30;72.40;;;19.65;58.59;94113.63;5042620;28;20291;-78
2022/08/15 01:53:31;;;;;;;0.40;0.40;;;19.30;73.10;;;19.63;58.70;94113.91;5046100;28;20295;-78
2022/08/15 01:56:30;;;;;;;0.40;0.40;;;19.30;73.10;;;19.59;58.05;94112.03;5031920;28;20220;-78
2022/08/15 01:59:10;;;;;;;0.40;0.40;;;19.30;73.40;;;19.57;58.68;94106.22;5014390;28;20574;-78
2022/08/15 02:02:00;;;;;;;0.50;0.50;;;19.20;72.80;;;19.52;58.38;94107.78;5059507;28;20254;-78
2022/08/15 02:04:36;;;;;;;0.40;0.40;;;19.20;73.50;;;19.51;58.39;94108.06;5047816;28;20650;-78
2022/08/15 02:07:12;;;;;;;0.40;0.40;;;19.20;72.80;;;19.50;58.75;94114.44;5064237;28;20223;-77
2022/08/15 02:09:50;;;;;;;0.43;0.43;;;19.20;73.20;;;19.48;58.31;94112.06;5044891;28;20237;-77
2022/08/15 02:12:32;;;;;;;0.40;0.40;;;19.10;73.00;;;19.46;58.75;94111.53;5015400;28;20246;-78
2022/08/15 02:15:21;;;;;;;0.40;0.40;;;19.10;73.60;;;19.43;58.78;94109.41;5031217;28;20192;-78
2022/08/15 02:17:52;;;;;;;0.40;0.40;;;19.10;73.00;;;19.40;58.78;94109.16;4999747;28;20252;-78
2022/08/15 02:20:23;;;;;;;0.50;0.50;;;19.00;72.90;;;19.40;59.03;94111.81;5012358;28;20741;-78
2022/08/15 02:22:54;;;;;;;0.40;0.40;;;19.00;73.00;;;19.38;59.09;94109.41;5014461;28;20251;-78
2022/08/15 02:25:22;;;;;;;0.40;0.40;;;19.00;73.10;;;19.36;59.23;94099.03;5013221;28;20206;-78
2022/08/15 02:27:53;;;;;;;0.43;0.43;;;19.00;73.20;;;19.37;59.16;94102.47;4997331;28;20689;-78
2022/08/15 02:30:26;;;;;;;0.43;0.43;;;19.00;73.50;;;19.35;59.10;94100.09;5047474;28;20246;-78
2022/08/15 02:33:01;;;;;;;0.40;0.40;;;19.00;73.60;;;19.36;59.45;94100.91;5045587;28;20192;-78
2022/08/15 02:35:29;;;;;;;0.60;0.60;;;19.00;73.40;;;19.36;59.15;94098.25;5014595;28;20206;-78
2022/08/15 02:38:04;;;;;;;0.50;0.50;;;19.00;73.50;;;19.35;59.21;94104.63;5030823;28;20207;-78
2022/08/15 02:40:39;;;;;;;0.50;0.50;;;19.00;74.40;;;19.33;59.27;94098.78;5019918;28;20211;-78
2022/08/15 02:43:16;;;;;;;0.43;0.43;;;19.00;73.60;;;19.34;59.69;94095.84;5018877;28;20250;-78
2022/08/15 02:45:48;;;;;;;0.50;0.50;;;19.00;73.70;;;19.33;59.63;94091.59;5002675;28;20250;-78
2022/08/15 02:48:39;;;;;;;0.45;0.45;;;19.00;73.90;;;19.36;59.73;94092.94;5033950;28;20220;-78
2022/08/15 02:51:13;;;;;;;0.50;0.50;;;19.00;74.10;;;19.39;59.40;94096.91;5014817;28;20677;-78
2022/08/15 02:53:47;;;;;;;0.40;0.40;;;19.00;74.40;;;19.39;59.88;94092.38;5014796;28;20196;-78
2022/08/15 02:56:18;;;;;;;0.50;0.50;;;19.00;74.30;;;19.43;60.14;94087.34;4998425;28;20581;-78
2022/08/15 02:58:47;;;;;;;0.40;0.40;;;19.00;74.30;;;19.44;60.00;94086.28;5029160;28;20215;-77
2022/08/15 03:01:17;;;;;;;0.40;0.40;;;19.00;74.20;;;19.44;59.68;94084.41;5000655;28;20223;-78
2022/08/15 03:03:55;;;;;;;0.50;0.50;;;19.00;74.30;;;19.44;60.00;94084.41;5049629;28;20658;-78
2022/08/15 03:06:32;;;;;;;0.50;0.50;;;19.10;74.40;;;19.48;59.61;94082.81;5064094;28;20223;-78
2022/08/15 03:09:07;;;;;;;0.50;0.50;;;19.10;74.60;;;19.50;59.91;94078.00;5051500;28;20689;-77
2022/08/15 03:11:52;;;;;;;0.40;0.40;;;19.10;74.40;;;19.49;60.21;94079.09;5026001;28;20235;-79
2022/08/15 03:14:36;;;;;;;0.50;0.50;;;19.10;74.20;;;19.48;59.63;94076.69;5038982;28;20203;-78
2022/08/15 03:17:08;;;;;;;0.70;0.70;;;19.10;74.30;;;19.49;60.24;94081.75;5058038;28;20224;-78
2022/08/15 03:19:42;;;;;;;0.50;0.50;;;19.10;74.30;;;19.46;60.07;94066.31;5042438;28;20188;-78
2022/08/15 03:22:13;;;;;;;0.40;0.40;;;19.10;74.30;;;19.47;60.07;94069.75;5040482;28;20236;-78
2022/08/15 03:25:01;;;;;;;0.40;0.40;;;19.10;74.40;;;19.47;59.85;94077.75;5033347;28;20207;-78
2022/08/15 03:27:30;;;;;;;0.40;0.40;;;19.10;74.50;;;19.48;60.56;94077.50;5039273;28;20584;-78
2022/08/15 03:30:04;;;;;;;0.50;0.50;;;19.10;74.80;;;19.49;60.48;94075.63;5027139;28;20212;-78
2022/08/15 03:32:47;;;;;;;0.50;0.50;;;19.10;74.90;;;19.51;60.80;94076.16;5049564;28;20776;-78
2022/08/15 03:35:16;;;;;;;0.40;0.40;;;19.10;75.00;;;19.54;60.40;94074.81;5057633;28;20192;-78
2022/08/15 03:37:44;;;;;;;0.50;0.50;;;19.20;75.20;;;19.58;60.72;94075.88;5057981;28;20219;-78
2022/08/15 03:40:33;;;;;;;0.40;0.40;;;19.20;75.10;;;19.62;60.58;94084.91;5047049;28;20235;-78
2022/08/15 03:43:16;;;;;;;0.40;0.40;;;19.20;75.10;;;19.68;60.70;94083.84;5064736;28;20203;-78
2022/08/15 03:45:50;;;;;;;0.30;0.30;;;19.30;75.60;;;19.72;61.15;94079.56;5048096;28;20203;-78
2022/08/15 03:48:29;;;;;;;0.40;0.40;;;19.30;75.60;;;19.77;60.71;94089.41;5020149;28;20678;-78
2022/08/15 03:51:01;;;;;;;0.40;0.40;;;19.40;75.50;;;19.79;60.74;94081.97;5064279;28;20227;-78
2022/08/15 03:53:50;;;;;;;0.40;0.40;;;19.40;75.40;;;19.82;60.77;94095.53;5063942;28;20602;-78
2022/08/15 03:56:27;;;;;;;0.50;0.50;;;19.40;75.60;;;19.84;60.90;94088.06;5049943;28;20235;-78
2022/08/15 03:58:56;;;;;;;0.60;0.60;;;19.50;75.40;;;19.87;60.75;94084.06;5015785;28;20208;-78
2022/08/15 04:01:28;;;;;;;0.40;0.40;;;19.50;75.20;;;19.91;60.72;94085.16;5013073;28;20698;-78
2022/08/15 04:03:59;;;;;;;0.40;0.40;;;19.50;75.20;;;19.93;61.01;94080.34;5035258;28;20238;-78
2022/08/15 04:06:40;;;;;;;0.50;0.50;;;19.60;75.10;;;19.95;60.80;94080.06;5029274;28;20226;-79
2022/08/15 04:09:11;;;;;;;0.40;0.40;;;19.60;75.10;;;19.91;60.92;94079.81;5001838;28;20489;-78
2022/08/15 04:11:46;;;;;;;0.50;0.50;;;19.60;75.30;;;19.97;61.01;94085.94;5017989;28;20233;-78
2022/08/15 04:14:30;;;;;;;0.40;0.40;;;19.60;75.30;;;20.00;60.82;94086.16;5016906;28;20215;-78
2022/08/15 04:17:08;;;;;;;0.40;0.40;;;19.70;75.40;;;20.04;61.15;94096.28;5046501;28;20239;-78
2022/08/15 04:19:45;;;;;;;0.40;0.40;;;19.70;75.60;;;20.06;61.60;94099.47;5047245;28;20299;-78
2022/08/15 04:22:38;;;;;;;0.40;0.40;;;19.70;75.70;;;20.10;61.46;94105.84;5016279;28;20319;-78
2022/08/15 04:25:31;;;;;;;0.45;0.45;;;19.70;76.20;;;20.13;61.24;94098.09;5017401;28;20662;-78
2022/08/15 04:28:15;;;;;;;0.40;0.40;;;19.80;75.70;;;20.17;61.24;94105.56;5063914;28;20206;-78
2022/08/15 04:31:08;;;;;;;0.50;0.50;;;19.80;75.70;;;20.21;61.40;94103.94;5046494;28;20228;-78
2022/08/15 04:33:44;;;;;;;0.60;0.60;;;19.90;76.00;;;20.25;61.21;94103.13;5064810;28;20200;-79
2022/08/15 04:36:33;;;;;;;0.40;0.40;;;19.90;75.60;;;20.27;61.07;94100.97;5012882;28;20223;-78
2022/08/15 04:39:03;;;;;;;0.40;0.40;;;19.90;76.30;;;20.31;61.29;94096.72;4997405;28;20204;-78
2022/08/15 04:41:36;;;;;;;0.40;0.40;;;20.00;75.50;;;20.36;61.58;94103.91;4997640;28;20232;-78
2022/08/15 04:44:08;;;;;;;0.40;0.40;;;20.00;76.30;;;20.40;61.10;94104.16;5025206;28;20213;-78
2022/08/15 04:46:51;;;;;;;0.40;0.40;;;20.10;75.60;;;20.44;60.94;94111.28;5012534;28;20221;-78
2022/08/15 04:49:18;;;;;;;0.30;0.30;;;20.10;75.40;;;20.46;61.36;94109.16;5012875;28;20220;-78
2022/08/15 04:51:49;;;;;;;0.40;0.40;;;20.10;75.40;;;20.51;60.88;94111.00;5034915;28;20583;-78
2022/08/15 04:54:16;;;;;;;0.40;0.40;;;20.20;75.60;;;20.49;61.18;94097.16;5027548;28;20634;-78
2022/08/15 04:56:59;;;;;;;0.40;0.40;;;20.20;75.60;;;20.58;61.13;94124.00;5003374;28;20234;-78
2022/08/15 04:59:27;;;;;;;0.40;0.40;;;20.30;75.60;;;20.62;61.41;94117.88;5057672;28;20191;-77
2022/08/15 05:02:12;;;;;;;0.40;0.40;;;20.30;75.70;;;20.66;61.07;94110.13;5055545;28;20281;-77
2022/08/15 05:05:03;;;;;;;0.40;0.40;;;20.40;76.20;;;20.67;61.63;94110.94;5018652;28;20287;-78
2022/08/15 05:07:34;;;;;;;0.30;0.30;;;20.40;75.80;;;20.75;61.55;94105.03;5025956;28;20247;-80
2022/08/15 05:10:04;;;;;;;0.40;0.40;;;20.50;75.80;;;20.79;61.93;94108.75;5028182;28;20248;-78
2022/08/15 05:12:40;;;;;;;0.40;0.40;;;20.50;76.00;;;20.84;61.70;94106.06;5007207;28;20276;-78
2022/08/15 05:15:11;;;;;;;0.40;0.40;;;20.50;75.90;;;20.88;61.81;94106.31;5028574;28;20413;-78
2022/08/15 05:17:41;;;;;;;0.50;0.50;;;20.60;76.20;;;20.91;61.86;94101.22;5031866;28;20240;-78
2022/08/15 05:20:26;;;;;;;0.40;0.40;;;20.60;76.00;;;20.96;61.67;94103.06;5003846;28;20230;-78
2022/08/15 05:22:59;;;;;;;0.40;0.40;;;20.70;76.00;;;21.06;62.01;94105.63;5027430;28;20233;-79
2022/08/15 05:25:38;;;;;;;0.40;0.40;;;20.70;76.20;;;21.10;61.91;94098.69;5002149;28;20212;-78
2022/08/15 05:28:12;;;;;;;0.40;0.40;;;20.80;77.00;;;21.18;61.83;94102.63;5062543;28;20227;-78
2022/08/15 05:31:05;;;;;;;0.50;0.50;;;20.90;76.30;;;21.25;61.72;94095.09;5032912;28;20228;-78
2022/08/15 05:33:46;;;;;;;0.30;0.30;;;20.90;76.30;;;21.32;61.68;94096.66;5014583;28;20668;-78
2022/08/15 05:36:33;;;;;;;0.35;0.35;;;21.00;76.20;;;21.38;61.97;94092.88;5027170;28;20730;-78
2022/08/15 05:39:24;;;;;;;0.40;0.40;;;21.00;76.10;;;21.46;61.59;94091.47;5041396;28;20196;-78
2022/08/15 05:42:50;;;;;;;0.43;0.43;;;21.10;76.50;;;21.49;61.79;94090.91;5055809;28;20874;-77
2022/08/15 05:45:32;;;;;;;0.40;0.40;;;21.20;76.50;;;21.55;61.74;94095.91;5027337;28;20232;-79
2022/08/15 05:48:20;;;;;;;0.40;0.40;;;21.30;76.40;;;21.66;61.78;94098.53;5031641;28;20209;-78
2022/08/15 05:51:28;;;;;;;0.40;0.40;;;21.40;76.30;;;21.74;61.65;94095.25;5045286;28;20617;-77
2022/08/15 05:54:27;;;;;;;0.40;0.40;;;21.40;76.30;;;21.84;61.57;94089.00;5064593;28;20259;-78
2022/08/15 05:57:10;;;;;;;0.40;0.40;;;21.60;76.30;;;21.90;61.35;94096.66;5063516;28;20217;-78
2022/08/15 05:59:51;;;;;;;0.30;0.30;;;21.60;76.20;;;22.01;62.03;94093.91;5047993;28;20571;-77
2022/08/15 06:02:35;;;;;;;0.40;0.40;;;21.70;76.20;;;22.10;61.46;94094.06;5047603;28;20268;-78
2022/08/15 06:05:32;;;;;;;0.40;0.40;;;21.80;76.20;;;22.18;61.54;94096.09;5047973;28;20254;-79
2022/08/15 06:08:14;;;;;;;0.40;0.40;;;21.90;76.30;;;22.28;61.86;94087.97;5063981;28;20209;-78
2022/08/15 06:11:20;;;;;;;0.40;0.40;;;22.00;76.00;;;22.35;61.67;94087.59;5030939;28;20227;-78
2022/08/15 06:13:57;;;;;;;0.30;0.30;;;22.10;75.90;;;22.46;61.54;94088.31;5051538;28;20267;-78
2022/08/15 06:16:43;;;;;;;0.40;0.40;;;22.20;75.90;;;22.56;61.53;94088.19;5067737;28;20225;-78
2022/08/15 06:19:29;;;;;;;0.30;0.30;;;22.30;76.00;;;22.65;60.66;94094.47;5068609;28;20245;-78
2022/08/15 06:22:17;;;;;;;0.30;0.30;;;22.30;75.70;;;22.74;61.26;94085.81;5067804;28;20224;-78
2022/08/15 06:25:12;;;;;;;0.30;0.30;;;22.50;75.50;;;22.83;60.92;94090.22;5068632;28;20251;-77
2022/08/15 06:28:06;;;;;;;0.50;0.50;;;22.60;75.40;;;22.93;60.70;94091.16;5067666;28;20218;-78
2022/08/15 06:31:02;;;;;;;0.30;0.30;;;22.70;75.20;;;23.03;60.88;94088.31;5068354;28;20259;-78
2022/08/15 06:34:24;;;;;;;0.40;0.40;;;22.80;75.20;;;23.13;60.53;94101.56;5051517;28;20241;-78
2022/08/15 06:37:32;;;;;;;0.30;0.30;;;22.90;75.10;;;23.22;60.74;94099.03;5047984;28;20701;-78
2022/08/15 06:40:17;;;;;;;0.40;0.40;;;23.00;74.90;;;23.33;60.50;94103.13;5052131;28;20207;-79
2022/08/15 06:42:58;;;;;;;0.30;0.30;;;23.10;74.90;;;23.45;60.79;94107.25;5049557;28;20192;-78
2022/08/15 06:45:49;;;;;;;0.40;0.40;;;23.10;74.90;;;23.55;60.52;94107.06;5062781;28;20207;-77
2022/08/15 06:48:24;;;;;;;0.30;0.30;;;23.20;74.90;;;23.63;60.42;94106.41;5051108;28;20199;-79
2022/08/15 06:51:18;;;;;;;0.22;0.22;;;23.30;74.90;;;23.74;60.37;94107.03;5067953;28;20319;-79
2022/08/15 06:53:56;;;;;;;0.35;0.35;;;23.50;74.80;;;23.85;60.12;94112.97;5051327;28;20692;-79
2022/08/15 06:56:38;;;;;;;0.35;0.35;;;23.60;74.60;;;23.94;59.56;94116.59;5050744;28;20581;-78
2022/08/15 06:59:36;;;;;;;0.30;0.30;;;23.70;73.80;;;24.01;59.42;94118.09;5068668;28;20713;-78
2022/08/15 07:02:15;;;;;;;0.30;0.30;;;23.80;73.50;;;24.13;59.08;94113.03;5034586;28;20219;-78
2022/08/15 07:04:48;;;;;;;0.30;0.30;;;23.90;73.40;;;24.23;58.74;94115.53;5049170;28;20216;-78
2022/08/15 07:07:35;;;;;;;0.40;0.40;;;23.90;73.30;;;24.34;58.92;94121.50;5050762;28;20218;-78
2022/08/15 07:10:14;;;;;;;0.30;0.30;;;24.00;73.20;;;24.44;58.53;94117.81;5067550;28;20266;-79
2022/08/15 07:13:14;;;;;;;0.30;0.30;;;24.10;73.20;;;24.54;58.40;94116.81;5050829;28;20715;-79
2022/08/15 07:15:55;;;;;;;0.40;0.40;;;24.20;72.70;;;24.64;58.34;94121.94;5050812;28;20258;-79
2022/08/15 07:18:43;;;;;;;0.30;0.30;;;24.40;72.60;;;24.75;58.08;94114.50;5067311;28;20197;-78
2022/08/15 07:21:37;;;;;;;0.30;0.30;;;24.50;72.60;;;24.82;57.95;94111.44;5059819;28;20236;-79
2022/08/15 07:24:19;;;;;;;0.30;0.30;;;24.50;72.20;;;24.89;57.68;94109.91;5048114;28;20204;-78
2022/08/15 07:27:12;;;;;;;0.40;0.40;;;24.60;72.20;;;24.96;57.37;94106.81;5050484;28;20273;-78
2022/08/15 07:29:54;;;;;;;0.28;0.28;;;24.70;71.80;;;25.06;57.52;94113.81;5066789;28;20220;-78
2022/08/15 07:32:40;;;;;;;0.30;0.30;;;24.80;71.90;;;25.15;57.37;94111.25;5050500;28;20283;-78
2022/08/15 07:35:12;;;;;;;0.30;0.30;;;24.90;72.00;;;25.21;57.16;94110.81;5049958;28;20287;-79
2022/08/15 07:38:06;;;;;;;0.40;0.40;;;25.00;71.90;;;25.29;57.10;94113.84;5066821;28;20687;-79
2022/08/15 07:41:22;;;;;;;0.60;0.60;;;25.00;71.40;;;25.36;57.20;94112.31;5054298;28;20215;-78
2022/08/15 07:44:20;;;;;;;0.30;0.30;;;25.10;71.30;;;25.46;56.70;94114.00;5050052;28;20567;-78
2022/08/15 07:47:00;;;;;;;0.32;0.32;;;25.20;71.20;;;25.56;56.44;94112.94;5034230;28;20295;-78
2022/08/15 07:49:34;;;;;;;0.30;0.30;;;25.30;70.70;;;25.66;56.22;94114.59;5066204;28;20263;-79
2022/08/15 07:52:17;;;;;;;0.30;0.30;;;25.40;70.70;;;25.75;56.18;94104.69;5050321;28;20256;-79
2022/08/15 07:55:20;;;;;;;0.20;0.20;;;25.50;70.70;;;25.82;55.64;94118.50;5046792;28;20308;-79
2022/08/15 07:58:16;;;;;;;0.40;0.40;;;25.60;70.10;;;25.91;54.99;94121.22;5033280;28;20723;-79
2022/08/15 08:01:08;;;;;;;0.20;0.20;;;25.70;68.50;;;25.97;54.39;94114.59;5064580;28;20283;-79
2022/08/15 08:04:11;;;;;;;0.30;0.30;;;25.80;68.60;;;25.99;53.62;94112.41;5066704;28;20196;-79
2022/08/15 08:07:19;;;;;;;0.20;0.20;;;25.80;67.90;;;26.06;53.55;94114.63;5066437;28;20240;-80
2022/08/15 08:10:14;;;;;;;0.30;0.30;;;25.90;66.80;;;26.09;52.99;94111.38;5047161;28;20775;-79
2022/08/15 08:13:20;;;;;;;0.30;0.30;;;25.90;67.90;;;26.12;52.66;94110.78;5062987;28;20642;-79
2022/08/15 08:16:11;;;;;;;0.47;0.47;;;26.00;67.50;;;26.15;52.74;94110.13;5048104;28;20686;-79
2022/08/15 08:19:24;;;;;;;0.30;0.30;;;26.00;67.30;;;26.19;53.62;94113.78;5046669;28;20201;-79
2022/08/15 08:22:43;;;;;;;0.20;0.20;;;26.00;67.80;;;26.29;53.37;94111.91;5049524;28;20266;-79
2022/08/15 08:25:45;;;;;;;0.20;0.20;;;26.10;67.70;;;26.37;52.78;94109.25;5034771;28;20202;-79
2022/08/15 08:28:40;;;;;;;0.30;0.30;;;26.20;68.10;;;26.52;52.86;94113.44;5049195;28;20198;-79
2022/08/15 08:31:21;;;;;;;0.30;0.30;;;26.30;67.50;;;26.59;52.60;94112.97;5066091;28;20229;-79
2022/08/15 08:34:41;;;;;;;0.30;0.30;;;26.40;67.20;;;26.70;52.83;94110.75;5049174;28;20679;-79
2022/08/15 08:37:35;;;;;;;0.20;0.20;;;26.50;67.50;;;26.82;52.12;94108.28;5062863;28;20226;-79
2022/08/15 08:43:31;;;;;;;0.30;0.30;;;26.70;66.20;;;26.95;50.90;94105.75;5049525;28;20248;-79
2022/08/15 08:46:23;;;;;;;0.30;0.30;;;26.70;65.30;;;27.07;50.63;94107.81;5015746;28;20585;-79
2022/08/15 08:49:44;;;;;;;0.30;0.30;;;26.80;65.40;;;27.19;51.40;94118.75;5065787;28;20296;-80
2022/08/15 08:52:59;;;;;;;0.30;0.30;;;27.00;66.30;;;27.36;50.71;94114.47;5033697;28;20222;-79
2022/08/15 08:55:30;;;;;;;0.30;0.30;;;27.10;65.70;;;27.46;49.37;94114.94;5033348;28;20202;-79
2022/08/15 08:58:26;;;;;;;0.30;0.30;;;27.20;64.80;;;27.56;49.69;94119.25;5061415;28;20221;-79
2022/08/15 09:01:08;;;;;;;0.30;0.30;;;27.30;64.70;;;27.60;48.61;94112.09;5032455;28;20302;-79
2022/08/15 09:06:04;;;;;;;0.22;0.22;;;27.50;65.30;;;27.62;48.21;94120.66;5089014;27;20573;-78
2022/08/15 09:15:05;;;;;;;0.20;0.20;;;27.30;64.80;;;26.78;50.37;94123.47;5089952;27;20568;-79
2022/08/15 09:17:52;;;;;;;0.20;0.20;;;27.10;65.00;;;27.10;50.15;94117.94;5070029;28;20317;-79
2022/08/15 09:20:33;;;;;;;0.30;0.30;;;27.10;64.80;;;27.42;49.22;94113.25;5068469;28;20227;-79
2022/08/15 09:23:05;;;;;;;0.30;0.30;;;27.30;64.50;;;27.76;49.28;94109.69;5068455;28;20198;-79
2022/08/15 09:25:59;;;;;;;0.30;0.30;;;27.40;64.70;;;28.10;49.03;94116.13;5068310;28;20189;-79
2022/08/15 09:28:37;;;;;;;0.35;0.35;;;27.70;64.40;;;28.46;48.79;94110.56;5068038;28;20196;-78
2022/08/15 09:31:22;;;;;;;0.20;0.20;;;28.00;64.20;;;28.79;48.76;94104.53;5068385;28;20216;-78
2022/08/15 09:34:15;;;;;;;0.30;0.30;;;28.30;64.00;;;29.06;47.80;94101.34;5051760;28;20626;-79
2022/08/15 09:37:21;;;;;;;0.30;0.30;;;28.70;63.40;;;29.34;47.88;94100.78;5054018;28;20297;-79
2022/08/15 09:40:28;;;;;;;0.30;0.30;;;28.90;62.80;;;29.57;47.62;94097.72;5051664;28;20308;-79
2022/08/15 09:44:10;;;;;;;0.30;0.30;;;29.20;62.70;;;29.77;47.41;94100.72;5068115;28;20648;-78
2022/08/15 09:47:23;;;;;;;0.30;0.30;;;29.50;63.00;;;29.93;46.96;94098.19;5054177;28;20257;-79
2022/08/15 09:50:40;;;;;;;0.20;0.20;;;29.60;61.70;;;30.00;46.09;94103.84;5067774;28;20198;-79
2022/08/15 09:53:36;;;;;;;0.30;0.30;;;29.80;61.90;;;30.06;44.96;94096.31;5051570;28;20658;-79
2022/08/15 09:56:30;;;;;;;0.35;0.35;;;29.80;60.40;;;30.10;45.48;94086.38;5067447;28;20219;-78
2022/08/15 09:59:21;;;;;;;0.30;0.30;;;29.90;60.70;;;30.14;43.82;94087.31;5052220;28;20206;-79
2022/08/15 10:01:53;;;;;;;0.30;0.30;;;30.00;59.50;;;30.21;44.34;94081.31;5067702;28;20224;-79
2022/08/15 10:04:44;;;;;;;0.30;0.30;;;30.00;59.90;;;30.31;44.61;94065.44;5051263;28;20241;-78
2022/08/15 10:07:11;;;;;;;0.30;0.30;;;30.10;60.40;;;30.46;44.68;94063.19;5067356;28;20232;-79
2022/08/15 10:10:00;;;;;;;0.20;0.20;;;30.20;60.00;;;30.63;44.21;94057.53;5051334;28;20348;-79
2022/08/15 10:12:32;;;;;;;0.28;0.28;;;30.40;59.60;;;30.84;43.63;94061.25;5068725;28;20209;-79
2022/08/15 10:15:24;;;;;;;0.30;0.30;;;30.50;59.50;;;31.04;43.21;94051.34;5051119;28;20260;-78
2022/08/15 10:17:52;;;;;;;0.20;0.20;;;30.70;59.00;;;31.21;43.09;94042.19;5067396;28;20215;-79
2022/08/15 10:20:29;;;;;;;0.30;0.30;;;30.90;58.90;;;31.37;42.56;94061.19;5051466;28;20206;-79
2022/08/15 10:23:00;;;;;;;0.30;0.30;;;31.00;57.80;;;31.37;41.70;94053.84;5050721;28;20223;-79
2022/08/15 10:25:35;;;;;;;0.30;0.30;;;31.10;57.40;;;31.23;38.77;94056.16;5042204;28;20197;-79
2022/08/15 10:28:12;;;;;;;0.40;0.40;;;31.10;54.70;;;31.05;40.09;94052.94;5053782;28;20217;-79
2022/08/15 10:31:02;;;;;;;0.32;0.32;;;31.00;55.00;;;30.91;40.72;94050.63;5039966;28;20226;-79
2022/08/15 10:33:33;;;;;;;0.20;0.20;;;31.00;55.50;;;30.87;40.97;94050.50;5037625;28;20304;-79
2022/08/15 10:36:35;;;;;;;0.30;0.30;;;30.90;56.00;;;30.90;41.36;94044.41;5037490;28;20226;-78
2022/08/15 10:39:45;;;;;;;0.30;0.30;;;30.80;57.10;;;31.02;41.63;94046.28;5038417;28;20215;-79
2022/08/15 10:42:38;;;;;;;0.40;0.40;;;30.90;57.30;;;31.20;42.05;94049.53;5064015;28;20229;-79
2022/08/15 10:45:23;;;;;;;0.35;0.35;;;31.00;57.50;;;31.40;40.90;94058.56;5037837;28;20223;-79
2022/08/15 10:48:37;;;;;;;0.28;0.28;;;31.10;56.40;;;31.57;41.40;94046.63;5053525;28;20383;-79
2022/08/15 10:52:02;;;;;;;0.28;0.28;;;31.30;57.60;;;31.72;40.88;94053.22;5052983;28;20223;-79
2022/08/15 10:54:44;;;;;;;0.30;0.30;;;31.50;56.00;;;31.83;40.23;94050.03;5054993;28;20188;-79
2022/08/15 10:57:19;;;;;;;0.20;0.20;;;31.50;55.10;;;31.87;39.98;94043.56;5036767;28;20273;-79
2022/08/15 10:59:51;;;;;;;0.40;0.40;;;31.70;54.40;;;31.96;40.26;94053.41;5036961;28;20241;-79
2022/08/15 11:02:38;;;;;;;0.40;0.40;;;31.70;54.70;;;32.01;39.62;94050.47;5052931;28;20216;-79
2022/08/15 11:05:17;;;;;;;0.20;0.20;;;31.80;55.00;;;32.07;39.80;94046.34;5037181;28;20684;-79
2022/08/15 11:07:49;;;;;;;0.30;0.30;;;31.90;54.20;;;32.18;39.07;94049.31;5053240;28;20297;-79
2022/08/15 11:10:29;;;;;;;0.20;0.20;;;32.00;53.20;;;32.29;37.66;94038.72;5047788;28;20203;-78
2022/08/15 11:13:05;;;;;;;0.30;0.30;;;32.10;52.00;;;32.43;38.15;94041.78;5035404;28;20331;-77
2022/08/15 11:15:54;;;;;;;0.30;0.30;;;32.20;52.60;;;32.55;36.33;94044.38;5031931;28;20190;-78
2022/08/15 11:18:34;;;;;;;0.20;0.20;;;32.30;51.00;;;32.66;36.75;94031.03;5035150;28;20202;-80
2022/08/15 11:21:29;;;;;;;0.22;0.22;;;32.40;51.50;;;32.77;37.47;94033.25;5008415;28;20356;-79
2022/08/15 11:24:06;;;;;;;0.30;0.30;;;32.60;51.70;;;32.91;37.21;94040.91;5020929;28;20229;-79
2022/08/15 11:26:40;;;;;;;0.28;0.28;;;32.70;51.40;;;33.05;37.15;94039.25;5031986;28;20216;-79
2022/08/15 11:29:19;;;;;;;0.30;0.30;;;32.80;51.00;;;33.16;36.66;94028.59;5007208;28;20255;-79
2022/08/15 11:31:53;;;;;;;0.30;0.30;;;32.90;50.40;;;33.25;35.95;94027.59;5022231;28;20337;-79
2022/08/15 11:34:32;;;;;;;0.30;0.30;;;33.10;49.50;;;33.32;35.13;94030.47;5046899;28;20620;-78
2022/08/15 11:37:17;;;;;;;0.20;0.20;;;33.20;49.60;;;33.39;35.63;94019.75;5045879;28;20223;-78
2022/08/15 11:39:55;;;;;;;0.30;0.30;;;33.20;49.50;;;33.48;35.48;94024.94;5037819;28;20246;-77
2022/08/15 11:42:36;;;;;;;0.20;0.20;;;33.40;49.80;;;33.57;35.60;94024.72;5040991;28;20557;-78